SNOW

Not for real navigation. The accuracy of this data is not assured See disclaimer for more information



ICAO NAME COUNTRY WIND Kt GUST Kt VIS m TEMP/DEW C BARO METAR
RJCW Wakkanai Airport Japan 34 0 100 -4/-6 29.41 RJCW 190741Z 28034KT 0100 R08/0400VP2000D BLSN +SHSN VV003 M04/M06 Q0996 RMK A2944
KRYM 0 0 200 -8/-8 29.68 KRYM 190756Z AUTO 00000KT 0.125SM -SN FZFG VV002 M08/M08 A2968 RMK AO2 SNB54 SLP069 T10791085 $
KC07 10 19 800 -6/-6 30.05 KC07 190748Z AUTO 26010G19KT 220V300 0.5SM SN OVC002 M06/M06 A3005 RMK AO2 P0001
PATC Tin City Airways Facilities Se AK United States 21 0 800 -21/-23 29.79 PATC 190755Z AUTO 02021KT 0.5SM -SN FZFG BKN011 M21/M23 A2979 RMK AO2 PK WND 01026/0701 SNB0655 SLP1
KCCU Copper Mountain, Red Cliff Pas CO United States 19 27 800 -5/-8 30.08 KCCU 190754Z AUTO 29019G27KT 0.5SM SN OVC001 M05/M08 A3008 RMK AO2

Show more